Kezdőlap
METAR-TAF:

METAR-TAF

Repülőterek :

Oklahoma City, Oklahoma, Amerikai Egyesült Államok

földrajzi szélesség: 35-29-17N, földrajzi hosszúság: 097-49-25W, magasság: 413 m

Jelenlegi meteorológiai megfigyelések

A jelentés 33 perccel ezelõtt készült, 10:35 UTC
Kelet-délkeleti szél 6 kt
Hőmérséklet 22°C
Páratartalom 83%
Légköri nyomás 1022 hPa
Látótávolság: 16.1 km
Borult 11000 lábon

METAR: KRCE 201035Z AUTO 12006KT 10SM OVC110 22/19 A3019 RMK AO2 TSNO

Idő: 06:08 (11:08 UTC)


TAF: hiányzik

Meteorológiai megfigyelések és előrejelzések több, mint 4000 repülőtéren (METAR és TAF jelentéseket).

A térképen piros és sárga pontok jelzik az elérhető meteorológiai állomásokat.

Mozgassa az egeret a pont fölött, hogy megjelenjen az állomás neve.

Azután kattintson az időjárási megfigyelések és előrejelzések megtekintéséhez.

A térkép megváltoztatása: kattintson a fekete keresztel jelölt zöld gombra ráközelítéshez, a vonallal jelölt zöld gombra távolításhoz, vagy a zöld nyilakra a szomszédos térképek eléréséhez.


METAR-TAF: